Time;durP1;ratioP1;P1;durP2;ratioP2;P2;SDS_P1;SDS_P2;PMS_P1;PMS_P2;Temp;Humidity;BMP_temperature;BMP_pressure;BME280_temperature;BME280_humidity;BME280_pressure;Samples;Min_cycle;Max_cycle;Signal;HPM_P1;HPM_P2
2021/09/18 00:04:28;;;;;;;4.45;2.25;;;;;;;13.56;80.72;101496.94;10186379;28;20145;-69
2021/09/18 00:09:25;;;;;;;6.70;3.00;;;;;;;13.46;81.84;101497.25;10192597;28;20475;-69
2021/09/18 00:14:22;;;;;;;5.60;3.15;;;;;;;13.41;82.28;101494.63;10192270;28;20424;-69
2021/09/18 00:19:18;;;;;;;8.43;3.50;;;;;;;13.42;82.59;101496.25;10185930;28;20045;-68
2021/09/18 00:24:16;;;;;;;6.47;3.50;;;;;;;13.35;83.33;101495.91;10187156;28;20205;-70
2021/09/18 00:29:12;;;;;;;6.53;3.42;;;;;;;13.34;83.34;101503.31;10191122;28;20049;-68
2021/09/18 00:34:09;;;;;;;7.43;4.65;;;;;;;13.40;83.46;101498.50;10179790;28;20096;-68
2021/09/18 00:39:05;;;;;;;8.70;4.07;;;;;;;13.39;83.30;101503.19;10189361;28;20066;-68
2021/09/18 00:44:02;;;;;;;8.35;4.55;;;;;;;13.41;83.54;101505.59;10190288;28;20042;-68
2021/09/18 00:48:58;;;;;;;7.65;4.57;;;;;;;13.45;83.46;101507.41;10186348;28;20451;-70
2021/09/18 00:53:55;;;;;;;7.05;4.00;;;;;;;13.49;83.77;101507.59;10190079;28;20050;-70
2021/09/18 00:58:51;;;;;;;6.28;3.95;;;;;;;13.51;83.69;101505.34;10190892;28;20129;-69
2021/09/18 01:03:48;;;;;;;8.90;4.18;;;;;;;13.53;83.82;101507.75;10188399;28;20169;-70
2021/09/18 01:08:51;;;;;;;8.18;4.18;;;;;;;13.49;84.00;101507.59;10188863;28;20412;-70
2021/09/18 01:13:47;;;;;;;7.63;4.22;;;;;;;13.49;84.39;101507.59;10189826;28;20712;-70
2021/09/18 01:18:44;;;;;;;7.78;4.25;;;;;;;13.46;85.01;101508.25;10186626;28;20050;-70
2021/09/18 01:23:41;;;;;;;7.35;4.90;;;;;;;13.42;84.92;101510.00;10199320;28;20098;-70
2021/09/18 01:28:40;;;;;;;7.10;5.00;;;;;;;13.34;85.74;101511.56;10192026;28;20504;-70
2021/09/18 01:33:36;;;;;;;9.02;5.43;;;;;;;13.39;85.66;101514.19;10195775;28;20049;-70
2021/09/18 01:38:33;;;;;;;9.23;4.65;;;;;;;13.34;85.90;101510.75;10192565;28;20038;-69
2021/09/18 01:43:30;;;;;;;6.30;4.47;;;;;;;13.41;86.06;101516.59;10193526;28;20046;-69
2021/09/18 01:48:26;;;;;;;8.10;3.90;;;;;;;13.44;86.75;101521.47;10193203;28;20084;-69
2021/09/18 01:53:24;;;;;;;7.57;4.85;;;;;;;13.44;87.18;101521.47;10193578;28;20054;-70
2021/09/18 01:58:20;;;;;;;8.32;4.93;;;;;;;13.33;88.22;101520.13;10193062;28;20501;-70
2021/09/18 02:03:18;;;;;;;11.82;5.63;;;;;;;13.30;89.08;101526.25;10190893;28;20042;-70
2021/09/18 02:08:15;;;;;;;11.57;6.35;;;;;;;13.26;89.59;101521.38;10183387;28;20042;-70
2021/09/18 02:13:12;;;;;;;8.80;5.55;;;;;;;13.29;89.61;101530.13;10194502;28;20045;-70
2021/09/18 02:18:09;;;;;;;7.50;5.28;;;;;;;13.34;90.14;101524.50;10192597;28;20042;-70
2021/09/18 02:23:07;;;;;;;9.65;7.00;;;;;;;13.35;90.55;101526.13;10193154;28;20057;-70
2021/09/18 02:28:04;;;;;;;13.70;7.15;;;;;;;13.29;90.96;101519.16;10193017;28;20050;-70
2021/09/18 02:33:01;;;;;;;11.68;7.80;;;;;;;13.26;91.13;101521.38;10192996;28;20052;-69
2021/09/18 02:37:59;;;;;;;12.75;7.80;;;;;;;13.29;91.03;101524.63;10190977;28;20046;-70
2021/09/18 02:42:59;;;;;;;12.48;7.28;;;;;;;13.28;91.33;101528.53;10192850;28;20092;-69
2021/09/18 02:47:56;;;;;;;13.68;7.97;;;;;;;13.29;91.89;101527.38;10193224;28;20050;-69
2021/09/18 02:52:53;;;;;;;14.85;8.77;;;;;;;13.26;92.42;101526.06;10193021;28;20038;-70
2021/09/18 02:57:49;;;;;;;12.10;8.05;;;;;;;13.20;92.53;101522.63;10187346;28;20048;-70
2021/09/18 03:02:46;;;;;;;12.27;7.82;;;;;;;13.26;92.38;101526.84;10193629;28;20154;-70
2021/09/18 03:07:43;;;;;;;12.48;7.68;;;;;;;13.29;92.50;101530.13;10192378;28;20053;-70
2021/09/18 03:12:40;;;;;;;11.82;8.18;;;;;;;13.29;92.80;101527.38;10192907;28;20053;-69
2021/09/18 03:17:37;;;;;;;10.98;8.23;;;;;;;13.29;93.30;101530.13;10196325;28;20076;-69
2021/09/18 03:22:33;;;;;;;11.65;7.55;;;;;;;13.42;92.63;101529.22;10200577;28;20049;-71
2021/09/18 03:27:31;;;;;;;12.85;8.15;;;;;;;13.46;92.51;101524.72;10199909;28;20053;-70
2021/09/18 03:32:27;;;;;;;15.27;8.13;;;;;;;13.35;92.67;101515.94;10199623;28;20045;-69
2021/09/18 03:37:24;;;;;;;10.10;7.32;;;;;;;13.43;93.25;101533.56;10200017;28;20053;-72
2021/09/18 03:42:20;;;;;;;10.82;7.65;;;;;;;13.51;92.66;101535.56;10196110;28;20455;-70
2021/09/18 03:47:17;;;;;;;10.38;7.80;;;;;;;13.54;93.12;101540.41;10199663;28;20042;-69
2021/09/18 03:52:13;;;;;;;12.63;8.38;;;;;;;13.52;92.88;101539.91;10190517;28;20088;-69
2021/09/18 03:57:10;;;;;;;9.25;6.63;;;;;;;13.47;93.51;101540.06;10197215;28;20050;-69
2021/09/18 04:02:06;;;;;;;11.05;7.53;;;;;;;13.52;93.61;101539.91;10198173;28;20053;-70
2021/09/18 04:07:04;;;;;;;13.20;7.93;;;;;;;13.46;93.32;101549.44;10198195;28;20053;-69
2021/09/18 04:12:01;;;;;;;11.30;8.23;;;;;;;13.49;93.24;101545.25;10198533;28;20507;-68
2021/09/18 04:16:58;;;;;;;13.23;8.48;;;;;;;13.49;93.42;101551.56;10196936;28;20065;-70
2021/09/18 04:21:55;;;;;;;10.90;7.53;;;;;;;13.47;94.21;101542.81;10197514;28;20042;-70
2021/09/18 04:26:51;;;;;;;13.13;8.45;;;;;;;13.51;93.57;101542.97;10197734;28;20046;-70
2021/09/18 04:31:48;;;;;;;11.35;7.80;;;;;;;13.51;93.87;101549.31;10197243;28;20042;-69
2021/09/18 04:36:44;;;;;;;15.95;8.13;;;;;;;13.48;94.37;101555.41;10197739;28;20042;-70
2021/09/18 04:41:41;;;;;;;12.52;8.20;;;;;;;13.51;94.21;101559.44;10196167;28;20046;-69
2021/09/18 04:46:37;;;;;;;11.88;7.40;;;;;;;13.49;94.29;101556.25;10197026;28;20053;-69
2021/09/18 04:51:34;;;;;;;13.50;8.75;;;;;;;13.52;94.60;101564.66;10196341;28;20052;-69
2021/09/18 04:56:31;;;;;;;14.98;8.00;;;;;;;13.54;94.24;101565.13;10196617;28;20045;-69
2021/09/18 05:01:28;;;;;;;9.98;6.80;;;;;;;13.56;94.87;101573.88;10195920;28;20050;-69
2021/09/18 05:06:24;;;;;;;9.63;7.18;;;;;;;13.64;94.67;101577.78;10195682;28;20077;-69
2021/09/18 05:11:21;;;;;;;12.68;7.65;;;;;;;13.70;94.78;101587.50;10196170;28;20046;-71
2021/09/18 05:16:17;;;;;;;10.55;7.93;;;;;;;13.73;94.31;101591.56;10195697;28;20037;-70
2021/09/18 05:21:14;;;;;;;11.50;7.93;;;;;;;13.74;93.72;101595.91;10193812;28;20046;-69
2021/09/18 05:26:11;;;;;;;11.88;7.97;;;;;;;13.72;93.87;101598.19;10195590;28;20050;-69
2021/09/18 05:31:07;;;;;;;9.50;7.40;;;;;;;13.74;94.31;101606.91;10195058;28;20050;-70
2021/09/18 05:36:04;;;;;;;11.07;8.07;;;;;;;13.77;94.14;101606.28;10195404;28;20038;-70
2021/09/18 05:41:01;;;;;;;11.68;7.15;;;;;;;13.76;94.23;101604.66;10192879;28;20041;-69
2021/09/18 05:45:57;;;;;;;12.07;6.93;;;;;;;13.78;94.46;101607.91;10194618;28;20462;-70
2021/09/18 05:50:54;;;;;;;12.52;7.47;;;;;;;13.80;94.30;101605.66;10194210;28;20053;-69
2021/09/18 05:55:50;;;;;;;10.77;7.93;;;;;;;13.76;94.08;101605.50;10193987;28;20041;-70
2021/09/18 06:00:47;;;;;;;12.02;8.25;;;;;;;13.68;94.46;101604.31;10193752;28;20507;-70
2021/09/18 06:05:43;;;;;;;10.68;7.93;;;;;;;13.76;94.87;101610.97;10194056;28;20042;-69
2021/09/18 06:10:41;;;;;;;12.32;7.90;;;;;;;13.82;95.05;101619.88;10193971;28;20073;-71
2021/09/18 06:15:37;;;;;;;13.32;7.68;;;;;;;13.86;95.20;101620.88;10193059;28;20045;-69
2021/09/18 06:20:34;;;;;;;10.88;7.15;;;;;;;13.85;94.89;101625.56;10193612;28;20046;-69
2021/09/18 06:25:30;;;;;;;8.65;6.30;;;;;;;13.88;95.02;101624.13;10193945;28;20045;-69
2021/09/18 06:30:28;;;;;;;9.60;6.80;;;;;;;13.98;95.46;101637.56;10193323;28;20050;-70
2021/09/18 06:35:25;;;;;;;9.23;5.85;;;;;;;14.08;95.38;101629.00;10193705;28;20053;-69
2021/09/18 06:40:22;;;;;;;8.50;5.30;;;;;;;14.19;95.62;101639.72;10192595;28;20049;-71
2021/09/18 06:45:18;;;;;;;9.70;6.03;;;;;;;14.27;95.15;101647.19;10193215;28;20446;-69
2021/09/18 06:50:15;;;;;;;10.82;5.72;;;;;;;14.27;94.99;101648.00;10192598;28;20073;-69
2021/09/18 06:55:12;;;;;;;8.15;4.60;;;;;;;14.38;94.00;101654.00;10200878;28;20045;-70
2021/09/18 07:00:09;;;;;;;7.45;4.55;;;;;;;14.33;94.21;101645.91;10200298;28;20103;-71
2021/09/18 07:05:06;;;;;;;8.70;4.05;;;;;;;14.42;94.35;101660.50;10200339;28;20427;-69
2021/09/18 07:10:03;;;;;;;8.73;3.25;;;;;;;14.55;94.35;101652.44;10201218;28;20417;-70
2021/09/18 07:14:59;;;;;;;4.68;2.72;;;;;;;14.61;94.00;101664.94;10199846;28;20504;-70
2021/09/18 07:19:57;;;;;;;4.45;2.75;;;;;;;14.70;93.95;101671.25;10199530;28;20136;-69
2021/09/18 07:24:54;;;;;;;6.07;2.72;;;;;;;14.78;93.35;101673.19;10198366;28;20562;-69
2021/09/18 07:29:51;;;;;;;5.30;2.45;;;;;;;14.78;92.39;101673.19;10199611;28;20053;-69
2021/09/18 07:34:47;;;;;;;5.88;2.42;;;;;;;14.86;92.38;101674.34;10194682;28;20042;-70
2021/09/18 07:39:44;;;;;;;4.43;1.80;;;;;;;14.92;91.82;101675.78;10198868;28;20042;-71
2021/09/18 07:44:41;;;;;;;5.75;2.08;;;;;;;14.97;91.58;101669.31;10199286;28;20096;-69
2021/09/18 07:49:37;;;;;;;4.93;2.30;;;;;;;15.04;91.51;101677.88;10198361;28;20108;-70
2021/09/18 07:54:33;;;;;;;3.85;1.80;;;;;;;15.11;90.97;101672.72;10198479;28;20582;-70
2021/09/18 07:59:50;;;;;;;4.47;1.77;;;;;;;15.20;91.07;101679.03;10195506;28;20038;-71
2021/09/18 08:04:46;;;;;;;4.07;1.58;;;;;;;15.35;90.77;101680.47;10194184;28;20518;-70
2021/09/18 08:09:43;;;;;;;3.13;1.33;;;;;;;15.42;90.13;101679.97;10197550;28;20048;-70
2021/09/18 08:14:40;;;;;;;5.25;1.20;;;;;;;15.59;90.05;101682.66;10199085;28;20054;-70
2021/09/18 08:19:36;;;;;;;4.78;1.40;;;;;;;15.81;89.50;101678.09;10197031;28;20050;-70
2021/09/18 08:24:33;;;;;;;4.80;1.30;;;;;;;15.92;88.28;101687.63;10197625;28;20054;-70
2021/09/18 08:29:29;;;;;;;2.92;0.90;;;;;;;16.01;88.16;101693.91;10196553;28;20116;-69
2021/09/18 08:34:26;;;;;;;2.15;0.80;;;;;;;16.09;87.59;101692.28;10197805;28;20081;-73
2021/09/18 08:39:22;;;;;;;3.53;1.08;;;;;;;16.14;87.03;101698.41;10196108;28;20054;-70
2021/09/18 08:44:19;;;;;;;2.75;0.95;;;;;;;16.19;86.23;101698.19;10196918;28;20045;-71
2021/09/18 08:49:17;;;;;;;2.40;0.70;;;;;;;16.22;85.36;101695.91;10196620;28;20412;-72
2021/09/18 08:54:13;;;;;;;2.63;0.65;;;;;;;16.27;85.65;101709.53;10196661;28;20049;-71
2021/09/18 08:59:10;;;;;;;2.78;1.00;;;;;;;16.24;85.31;101710.19;10195967;28;20045;-71
2021/09/18 09:04:07;;;;;;;2.20;0.85;;;;;;;16.15;85.25;101705.53;10196048;28;20049;-70
2021/09/18 09:09:10;;;;;;;2.30;0.75;;;;;;;16.15;85.05;101719.34;10179208;28;20508;-69
2021/09/18 09:14:10;;;;;;;3.75;0.80;;;;;;;16.10;84.55;101722.25;10194044;28;20104;-70
2021/09/18 09:19:15;;;;;;;2.30;0.65;;;;;;;15.99;84.87;101726.53;10195186;28;20072;-71
2021/09/18 09:24:14;;;;;;;1.90;0.70;;;;;;;16.03;85.22;101716.44;10195478;28;20041;-71
2021/09/18 09:29:11;;;;;;;2.13;0.80;;;;;;;16.13;85.86;101716.09;10194399;28;20408;-70
2021/09/18 09:34:16;;;;;;;1.85;0.70;;;;;;;16.27;86.29;101721.41;10195563;28;20096;-70
2021/09/18 09:39:21;;;;;;;2.65;0.90;;;;;;;16.27;85.22;101726.91;10190646;28;20041;-71
2021/09/18 09:44:27;;;;;;;3.55;0.98;;;;;;;16.37;85.40;101736.75;10194927;28;20045;-71
2021/09/18 09:49:43;;;;;;;3.45;0.70;;;;;;;16.49;85.41;101728.56;10194751;28;20042;-70
2021/09/18 09:54:39;;;;;;;3.15;0.80;;;;;;;16.46;84.08;101723.72;10194080;28;20046;-72
2021/09/18 09:59:37;;;;;;;2.38;0.70;;;;;;;16.35;84.78;101728.00;10193487;28;20049;-70
2021/09/18 10:04:34;;;;;;;1.95;0.65;;;;;;;16.24;85.57;101735.84;10194234;28;20123;-69
2021/09/18 10:09:33;;;;;;;2.47;0.73;;;;;;;16.30;85.99;101742.00;10193361;28;20073;-69
2021/09/18 10:14:31;;;;;;;1.60;0.50;;;;;;;16.43;85.95;101740.97;10194077;28;20056;-70
2021/09/18 10:24:36;;;;;;;2.97;0.90;;;;;;;16.78;84.94;101740.75;10192897;28;20046;-70
2021/09/18 10:29:33;;;;;;;4.85;1.00;;;;;;;16.93;84.04;101726.38;10192475;28;20041;-70
2021/09/18 10:34:30;;;;;;;1.95;0.55;;;;;;;17.00;83.87;101734.91;10193467;28;20050;-70
2021/09/18 10:39:26;;;;;;;3.22;1.08;;;;;;;16.98;82.36;101733.63;10192724;28;20108;-71
2021/09/18 10:44:44;;;;;;;3.67;1.00;;;;;;;17.03;82.29;101737.03;10193322;28;20042;-69
2021/09/18 10:49:42;;;;;;;1.60;0.60;;;;;;;17.07;82.51;101737.16;10193445;28;20608;-69
2021/09/18 10:55:08;;;;;;;4.03;0.75;;;;;;;17.02;81.40;101738.16;10192823;28;20577;-69
2021/09/18 11:00:32;;;;;;;2.33;0.82;;;;;;;16.89;81.42;101741.19;10192888;28;20073;-72
2021/09/18 11:05:37;;;;;;;2.55;1.13;;;;;;;16.92;80.95;101751.56;10183893;28;20045;-69
2021/09/18 11:10:34;;;;;;;4.25;1.30;;;;;;;16.84;81.49;101750.47;10192305;28;20131;-71
2021/09/18 11:15:42;;;;;;;5.03;1.10;;;;;;;16.74;82.50;101757.19;10192109;28;20132;-69
2021/09/18 11:20:39;;;;;;;3.88;1.63;;;;;;;16.69;82.17;101759.34;10192045;28;20464;-70
2021/09/18 11:25:43;;;;;;;5.57;1.40;;;;;;;16.62;82.51;101757.91;10192300;28;20073;-69
2021/09/18 11:30:41;;;;;;;4.03;1.35;;;;;;;16.66;83.18;101759.97;10191096;28;20115;-68
2021/09/18 11:35:39;;;;;;;3.58;1.10;;;;;;;16.78;83.23;101758.13;10192480;28;20547;-69
2021/09/18 11:40:36;;;;;;;3.45;1.17;;;;;;;16.82;82.87;101763.81;10198759;28;20062;-69
2021/09/18 11:45:38;;;;;;;4.90;1.30;;;;;;;16.82;82.87;101763.81;10199011;28;20068;-68
2021/09/18 11:50:39;;;;;;;4.13;1.08;;;;;;;16.88;83.04;101768.00;10199449;28;20046;-71
2021/09/18 11:55:43;;;;;;;3.10;0.98;;;;;;;16.90;82.72;101764.91;10198866;28;20468;-70
2021/09/18 12:01:00;;;;;;;3.83;1.10;;;;;;;16.98;81.40;101772.31;10198855;28;20104;-71
2021/09/18 12:06:03;;;;;;;2.58;0.68;;;;;;;16.79;79.94;101770.81;10198221;28;20411;-69
2021/09/18 12:11:09;;;;;;;5.22;0.90;;;;;;;16.76;80.47;101776.19;10198556;28;20136;-68
2021/09/18 12:16:07;;;;;;;3.53;0.85;;;;;;;16.60;81.89;101779.50;10195733;28;20073;-70
2021/09/18 12:21:09;;;;;;;2.90;1.15;;;;;;;16.54;82.69;101780.81;10196708;28;20145;-70
2021/09/18 12:26:07;;;;;;;5.22;1.85;;;;;;;16.54;83.43;101775.31;10196674;28;20065;-69
2021/09/18 12:31:32;;;;;;;4.72;2.15;;;;;;;16.56;84.08;101778.53;10197573;28;20065;-70
2021/09/18 12:36:29;;;;;;;4.03;1.30;;;;;;;16.62;84.29;101777.22;10181882;28;20074;-70
2021/09/18 12:41:30;;;;;;;3.40;1.52;;;;;;;16.73;83.21;101787.88;10196473;28;20069;-70
2021/09/18 12:46:28;;;;;;;5.18;1.50;;;;;;;16.78;81.93;101787.72;10195713;28;20092;-71
2021/09/18 12:51:26;;;;;;;4.97;1.73;;;;;;;16.85;81.65;101779.72;10186291;28;20064;-70
2021/09/18 12:56:28;;;;;;;4.20;1.85;;;;;;;16.82;82.24;101783.13;10196520;28;20045;-68
2021/09/18 13:01:45;;;;;;;4.85;1.27;;;;;;;16.85;81.95;101774.22;10189651;28;20081;-67
2021/09/18 13:07:02;;;;;;;5.53;1.73;;;;;;;16.88;81.60;101776.28;10193272;28;20038;-69
2021/09/18 13:12:06;;;;;;;2.55;1.30;;;;;;;16.85;79.88;101768.69;10195835;28;20132;-71
2021/09/18 13:17:08;;;;;;;5.57;2.08;;;;;;;16.96;78.31;101775.41;10199368;28;20072;-70
2021/09/18 13:22:05;;;;;;;4.25;1.70;;;;;;;17.52;80.15;101779.84;10195360;28;20050;-69
2021/09/18 13:27:02;;;;;;;3.17;1.10;;;;;;;18.18;77.65;101777.06;10194719;28;20066;-70
2021/09/18 13:31:58;;;;;;;4.13;1.73;;;;;;;19.21;72.59;101772.38;10195194;28;20646;-71
2021/09/18 13:36:55;;;;;;;4.38;1.50;;;;;;;19.88;69.55;101773.50;10194406;28;20125;-69
2021/09/18 13:41:53;;;;;;;3.85;1.20;;;;;;;20.19;65.07;101763.59;10194661;28;20046;-70
2021/09/18 13:46:49;;;;;;;3.45;1.13;;;;;;;19.88;66.75;101776.28;10192560;28;20073;-70
2021/09/18 13:51:48;;;;;;;4.60;1.55;;;;;;;19.61;68.38;101768.75;10193155;28;20132;-70
2021/09/18 13:56:48;;;;;;;3.75;0.98;;;;;;;19.30;67.54;101768.31;10194119;28;20046;-70
2021/09/18 14:01:44;;;;;;;4.65;1.20;;;;;;;19.11;68.54;101760.63;10192895;28;20100;-70
2021/09/18 14:06:41;;;;;;;2.25;1.10;;;;;;;18.91;70.31;101761.59;10191413;28;20049;-70
2021/09/18 14:11:38;;;;;;;5.05;1.45;;;;;;;18.78;68.78;101757.25;10193297;28;20137;-71
2021/09/18 14:16:36;;;;;;;2.10;0.90;;;;;;;18.64;67.09;101747.31;10192805;28;20123;-70
2021/09/18 14:21:34;;;;;;;4.93;1.08;;;;;;;19.28;67.26;101748.44;10193184;28;20110;-70
2021/09/18 14:26:30;;;;;;;3.83;0.98;;;;;;;19.45;64.92;101752.91;10193633;28;20141;-69
2021/09/18 14:31:27;;;;;;;1.77;0.70;;;;;;;19.59;66.72;101746.13;10193196;28;20108;-69
2021/09/18 14:36:24;;;;;;;4.25;1.65;;;;;;;19.33;64.82;101755.69;10192286;28;20096;-70
2021/09/18 14:41:20;;;;;;;4.28;1.25;;;;;;;19.08;65.49;101752.22;10192468;28;20091;-71
2021/09/18 14:46:17;;;;;;;2.60;0.90;;;;;;;18.76;65.32;101748.47;10193140;28;20049;-69
2021/09/18 14:51:13;;;;;;;2.28;0.88;;;;;;;18.61;67.92;101748.03;10192375;28;20122;-71
2021/09/18 14:56:10;;;;;;;3.67;1.48;;;;;;;18.37;68.02;101748.00;10192245;28;20073;-70
2021/09/18 15:01:07;;;;;;;3.95;1.20;;;;;;;18.33;69.30;101753.41;10192157;28;20045;-71
2021/09/18 15:06:04;;;;;;;4.40;1.52;;;;;;;18.26;68.77;101754.03;10192599;28;20042;-70
2021/09/18 15:11:00;;;;;;;4.13;1.25;;;;;;;18.19;68.88;101759.28;10191532;28;20046;-70
2021/09/18 15:15:57;;;;;;;4.15;1.50;;;;;;;18.04;68.81;101754.44;10199832;28;20072;-70
2021/09/18 15:20:54;;;;;;;2.70;1.13;;;;;;;18.03;70.38;101744.50;10199647;28;20150;-70
2021/09/18 15:25:50;;;;;;;3.35;0.90;;;;;;;17.90;70.21;101759.50;10199360;28;20049;-70
2021/09/18 15:30:53;;;;;;;3.63;1.30;;;;;;;17.81;69.56;101759.59;10196973;28;20042;-70
2021/09/18 15:35:50;;;;;;;5.78;1.50;;;;;;;17.82;71.44;101748.19;10200414;28;20066;-71
2021/09/18 15:40:48;;;;;;;3.00;1.10;;;;;;;17.83;70.78;101760.06;10200837;28;20066;-70
2021/09/18 15:45:45;;;;;;;7.65;1.90;;;;;;;17.98;69.15;101753.03;10199046;28;20389;-69
2021/09/18 15:50:41;;;;;;;2.70;1.10;;;;;;;18.03;72.35;101759.19;10198605;28;20100;-69
2021/09/18 15:55:38;;;;;;;5.25;1.27;;;;;;;17.99;72.13;101754.69;10198892;28;20080;-70
2021/09/18 16:00:34;;;;;;;4.45;1.55;;;;;;;17.99;72.57;101765.75;10198073;28;20042;-70
2021/09/18 16:05:31;;;;;;;4.95;1.60;;;;;;;17.88;73.88;101777.25;10198571;28;20070;-70
2021/09/18 16:10:27;;;;;;;3.70;1.63;;;;;;;17.93;72.65;101778.19;10197981;28;20047;-70
2021/09/18 16:15:24;;;;;;;5.75;1.52;;;;;;;17.85;72.14;101777.13;10197397;28;20129;-70
2021/09/18 16:20:21;;;;;;;4.15;1.92;;;;;;;17.93;72.95;101783.72;10197003;28;20518;-70
2021/09/18 16:25:17;;;;;;;3.88;1.70;;;;;;;17.60;73.37;101781.72;10196872;28;20189;-71
2021/09/18 16:30:16;;;;;;;6.57;2.25;;;;;;;17.53;72.51;101787.00;10197279;28;20056;-70
2021/09/18 16:35:14;;;;;;;6.00;1.98;;;;;;;17.34;73.42;101784.75;10195092;28;20049;-70
2021/09/18 16:40:12;;;;;;;6.28;2.72;;;;;;;17.18;73.29;101790.06;10196082;28;20061;-70
2021/09/18 16:45:10;;;;;;;5.13;2.25;;;;;;;17.12;75.16;101794.16;10196924;28;20050;-69
2021/09/18 16:50:08;;;;;;;6.18;2.15;;;;;;;17.03;74.31;101786.75;10196460;28;20061;-69
2021/09/18 16:55:05;;;;;;;7.97;2.58;;;;;;;16.93;74.03;101791.84;10196427;28;20046;-71
2021/09/18 17:00:05;;;;;;;7.78;2.90;;;;;;;16.89;74.15;101791.72;10196266;28;20678;-70
2021/09/18 17:05:02;;;;;;;6.05;2.95;;;;;;;16.83;73.90;101795.81;10195208;28;20092;-70
2021/09/18 17:09:59;;;;;;;8.23;3.15;;;;;;;16.79;74.57;101800.38;10195305;28;20054;-71
2021/09/18 17:14:55;;;;;;;8.18;3.85;;;;;;;16.72;74.56;101805.59;10195439;28;20042;-71
2021/09/18 17:19:52;;;;;;;6.32;3.17;;;;;;;16.65;75.59;101819.13;10194715;28;20109;-69
2021/09/18 17:24:48;;;;;;;10.70;3.20;;;;;;;16.58;75.63;101825.97;10194529;28;20046;-71
2021/09/18 17:29:45;;;;;;;8.10;3.75;;;;;;;16.46;75.47;101823.09;10194960;28;20072;-69
2021/09/18 17:34:41;;;;;;;8.70;3.88;;;;;;;16.44;76.38;101825.38;10189591;28;20092;-70
2021/09/18 17:39:38;;;;;;;10.38;4.05;;;;;;;16.30;74.42;101824.78;10194447;28;20077;-70
2021/09/18 17:44:34;;;;;;;7.35;3.10;;;;;;;16.31;74.59;101831.91;10193883;28;20443;-70
2021/09/18 17:49:31;;;;;;;5.72;2.92;;;;;;;16.30;74.78;101841.34;10193611;28;20078;-69
2021/09/18 17:54:27;;;;;;;9.13;4.15;;;;;;;16.27;74.07;101842.81;10194236;28;20540;-68
2021/09/18 17:59:24;;;;;;;10.55;4.45;;;;;;;16.20;74.15;101848.84;10192161;28;20128;-69
2021/09/18 18:04:22;;;;;;;7.00;3.55;;;;;;;16.09;72.61;101855.84;10193354;28;20112;-71
2021/09/18 18:09:19;;;;;;;7.97;4.07;;;;;;;16.08;72.93;101862.50;10193181;28;20046;-71
2021/09/18 18:14:15;;;;;;;5.82;3.25;;;;;;;16.04;72.97;101867.03;10193160;28;20554;-70
2021/09/18 18:19:11;;;;;;;7.60;3.47;;;;;;;15.98;74.14;101869.16;10191368;28;20050;-70
2021/09/18 18:24:08;;;;;;;9.07;3.00;;;;;;;15.93;72.08;101876.78;10192294;28;20046;-69
2021/09/18 18:29:04;;;;;;;5.22;2.90;;;;;;;15.93;73.51;101874.03;10192419;28;20508;-70
2021/09/18 18:34:01;;;;;;;8.20;3.13;;;;;;;15.76;72.13;101878.44;10191682;28;20069;-69
2021/09/18 18:38:57;;;;;;;9.18;3.50;;;;;;;15.72;71.83;101882.16;10191164;28;20100;-70
2021/09/18 18:43:54;;;;;;;8.45;3.05;;;;;;;15.71;73.59;101886.88;10192091;28;20062;-71
2021/09/18 18:48:50;;;;;;;6.95;3.45;;;;;;;15.61;72.27;101892.66;10202446;28;20069;-71
2021/09/18 18:53:47;;;;;;;9.95;3.75;;;;;;;15.51;72.14;101898.50;10205421;28;20620;-70
2021/09/18 18:58:43;;;;;;;10.65;4.10;;;;;;;15.52;72.38;101900.09;10204248;28;20068;-70
2021/09/18 19:03:40;;;;;;;5.72;3.03;;;;;;;15.55;74.21;101902.25;10205841;28;20038;-71
2021/09/18 19:08:37;;;;;;;6.28;3.70;;;;;;;15.51;75.15;101904.00;10203258;28;20052;-70
2021/09/18 19:13:33;;;;;;;7.38;3.40;;;;;;;15.43;72.43;101907.56;10204611;28;20128;-69
2021/09/18 19:18:30;;;;;;;7.05;3.00;;;;;;;15.30;71.66;101915.63;10205545;28;20046;-70
2021/09/18 19:23:26;;;;;;;6.70;3.55;;;;;;;15.30;71.21;101915.63;10204267;28;20121;-70
2021/09/18 19:28:23;;;;;;;6.53;3.30;;;;;;;15.34;71.17;101916.63;10201300;28;20129;-70
2021/09/18 19:33:19;;;;;;;5.18;3.03;;;;;;;15.26;71.46;101917.41;10205590;28;20042;-70
2021/09/18 19:38:16;;;;;;;6.10;2.80;;;;;;;15.24;70.72;101916.91;10204883;28;20488;-69
2021/09/18 19:43:12;;;;;;;6.78;3.00;;;;;;;15.24;71.09;101916.91;10205080;28;20460;-70
2021/09/18 19:48:09;;;;;;;6.72;2.80;;;;;;;15.14;71.11;101929.03;10204355;28;20074;-68
2021/09/18 19:53:05;;;;;;;5.97;2.92;;;;;;;15.05;70.99;101930.16;10203716;28;20142;-69
2021/09/18 19:58:02;;;;;;;7.15;3.72;;;;;;;14.98;71.13;101935.31;10201664;28;20046;-69
2021/09/18 20:02:59;;;;;;;8.02;3.10;;;;;;;14.75;72.08;101938.13;10197892;28;20053;-70
2021/09/18 20:07:56;;;;;;;7.82;3.70;;;;;;;14.66;72.99;101940.00;10198350;28;20074;-70
2021/09/18 20:12:52;;;;;;;8.50;3.78;;;;;;;14.59;73.15;101945.16;10197386;28;20190;-70
2021/09/18 20:17:49;;;;;;;7.38;3.88;;;;;;;14.52;73.89;101946.38;10197952;28;20099;-70
2021/09/18 20:22:46;;;;;;;7.45;3.88;;;;;;;14.45;73.79;101957.00;10204268;28;20527;-69
2021/09/18 20:27:42;;;;;;;11.73;3.67;;;;;;;14.43;73.68;101947.44;10197301;28;20492;-70
2021/09/18 20:32:38;;;;;;;7.75;3.30;;;;;;;14.49;74.01;101946.22;10196801;28;20129;-70
2021/09/18 20:37:35;;;;;;;6.20;3.03;;;;;;;14.46;73.65;101946.84;10197067;28;20046;-71
2021/09/18 20:42:32;;;;;;;9.93;3.45;;;;;;;14.48;74.00;101944.56;10196223;28;20041;-70
2021/09/18 20:47:29;;;;;;;7.38;3.55;;;;;;;14.44;74.24;101949.09;10196255;28;20088;-70
2021/09/18 20:52:25;;;;;;;6.88;3.65;;;;;;;14.42;74.03;101945.84;10196469;28;20081;-71
2021/09/18 20:57:22;;;;;;;8.02;3.70;;;;;;;14.39;74.05;101939.03;10195351;28;20132;-70
2021/09/18 21:07:35;;;;;;;7.85;3.80;;;;;;;14.35;74.13;101951.78;10194399;28;20092;-70
2021/09/18 21:12:36;;;;;;;12.32;4.25;;;;;;;14.30;74.14;101951.91;10193106;28;20562;-70
2021/09/18 21:17:32;;;;;;;9.80;4.25;;;;;;;14.25;74.47;101952.03;10195531;28;20480;-71
2021/09/18 21:22:29;;;;;;;7.95;4.03;;;;;;;14.18;74.52;101948.91;10194451;28;20120;-69
2021/09/18 21:27:26;;;;;;;8.10;3.50;;;;;;;14.08;74.81;101942.50;10194699;28;20104;-70
2021/09/18 21:32:22;;;;;;;11.93;4.35;;;;;;;13.97;74.65;101945.81;10193139;28;20115;-70
2021/09/18 21:37:19;;;;;;;6.70;3.55;;;;;;;13.88;75.03;101949.31;10194603;28;20046;-70
2021/09/18 21:42:16;;;;;;;9.07;4.80;;;;;;;13.80;75.24;101954.75;10193782;28;20488;-70
2021/09/18 21:47:12;;;;;;;7.60;3.95;;;;;;;13.70;75.71;101949.47;10193832;28;20045;-69
2021/09/18 21:52:09;;;;;;;9.57;4.15;;;;;;;13.62;75.70;101937.25;10193994;28;20123;-70
2021/09/18 21:57:05;;;;;;;11.57;4.75;;;;;;;13.53;76.06;101942.69;10193230;28;20248;-69
2021/09/18 22:02:02;;;;;;;8.48;3.90;;;;;;;13.43;76.57;101945.66;10176860;28;20381;-70
2021/09/18 22:06:58;;;;;;;9.15;4.43;;;;;;;13.35;76.71;101936.19;10193231;28;20050;-70
2021/09/18 22:11:55;;;;;;;8.45;4.43;;;;;;;13.28;77.08;101940.50;10192068;28;20061;-71
2021/09/18 22:16:51;;;;;;;9.35;4.45;;;;;;;13.20;77.03;101928.22;10192740;28;20046;-70
2021/09/18 22:21:48;;;;;;;9.27;4.47;;;;;;;13.11;77.17;101930.91;10200109;28;20129;-69
2021/09/18 22:26:44;;;;;;;7.30;4.10;;;;;;;13.02;77.51;101927.25;10192242;28;20088;-70
2021/09/18 22:31:41;;;;;;;12.32;5.13;;;;;;;12.97;77.83;101935.56;10191545;28;20077;-71
2021/09/18 22:36:37;;;;;;;11.95;4.60;;;;;;;12.89;77.96;101933.53;10193180;28;20886;-70
2021/09/18 22:41:34;;;;;;;7.93;4.60;;;;;;;12.83;78.05;101930.91;10192303;28;20050;-70
2021/09/18 22:46:30;;;;;;;8.38;4.35;;;;;;;12.76;78.62;101930.44;10192595;28;20049;-69
2021/09/18 22:51:26;;;;;;;12.93;5.53;;;;;;;12.73;78.63;101931.06;10191416;28;20076;-70
2021/09/18 22:56:23;;;;;;;9.98;4.57;;;;;;;12.71;78.97;101927.00;10192772;28;20081;-70